Time;durP1;ratioP1;P1;durP2;ratioP2;P2;SDS_P1;SDS_P2;PMS_P1;PMS_P2;Temp;Humidity;BMP_temperature;BMP_pressure;BME280_temperature;BME280_humidity;BME280_pressure;Samples;Min_cycle;Max_cycle;Signal;HPM_P1;HPM_P2
2022/11/04 00:01:41;;;;;;;2.78;0.85;;;20.10;57.70;;;;;;4055808;29;20451;-52
2022/11/04 00:04:04;;;;;;;3.05;1.05;;;20.20;57.80;;;;;;4041094;29;20626;-46
2022/11/04 00:06:26;;;;;;;1.92;0.95;;;20.20;57.40;;;;;;4041852;29;20059;-53
2022/11/04 00:08:50;;;;;;;2.42;0.95;;;20.20;57.70;;;;;;4049444;29;20272;-52
2022/11/04 00:13:53;;;;;;;1.30;1.02;;;20.30;58.10;;;;;;4054472;29;20452;-49
2022/11/04 00:18:58;;;;;;;2.20;0.77;;;20.40;58.10;;;;;;4054708;29;20103;-54
2022/11/04 00:29:22;;;;;;;2.30;0.73;;;20.70;58.00;;;;;;4051286;29;20127;-53
2022/11/04 00:34:25;;;;;;;7.75;1.45;;;20.80;57.50;;;;;;4055187;29;20032;-46
2022/11/04 00:36:48;;;;;;;2.95;1.00;;;20.90;57.70;;;;;;4054769;29;20048;-54
2022/11/04 00:39:10;;;;;;;8.90;1.75;;;20.90;57.50;;;;;;4049519;29;20484;-48
2022/11/04 00:41:33;;;;;;;3.83;1.40;;;21.00;58.40;;;;;;4054179;29;20708;-47
2022/11/04 00:44:00;;;;;;;8.50;1.38;;;21.00;58.40;;;;;;4040739;29;20223;-50
2022/11/04 00:46:24;;;;;;;5.80;1.10;;;21.10;58.40;;;;;;4056884;29;20067;-48
2022/11/04 00:48:47;;;;;;;5.43;1.17;;;21.20;58.30;;;;;;4050598;29;20039;-50
2022/11/04 00:51:09;;;;;;;2.55;0.98;;;21.20;58.00;;;;;;4047815;29;20043;-47
2022/11/04 00:53:32;;;;;;;1.85;0.73;;;21.30;57.90;;;;;;4052989;29;20044;-49
2022/11/04 00:55:59;;;;;;;4.82;1.13;;;21.30;57.70;;;;;;4054998;29;20059;-48
2022/11/04 00:58:21;;;;;;;3.85;1.15;;;21.40;57.60;;;;;;4055206;29;20043;-52
2022/11/04 01:00:44;;;;;;;2.85;1.25;;;21.40;56.60;;;;;;4054330;29;20062;-48
2022/11/04 01:03:06;;;;;;;2.40;0.90;;;21.40;56.30;;;;;;4056734;29;20039;-52
2022/11/04 01:05:29;;;;;;;9.52;1.40;;;21.40;55.90;;;;;;4056727;29;20580;-47
2022/11/04 01:07:51;;;;;;;13.10;1.67;;;21.40;57.90;;;;;;4056094;29;20087;-54
2022/11/04 01:10:14;;;;;;;15.57;1.55;;;21.50;58.60;;;;;;4047776;29;20575;-53
2022/11/04 01:12:37;;;;;;;3.53;1.02;;;21.50;59.30;;;;;;4052421;29;20039;-52
2022/11/04 01:14:59;;;;;;;6.85;1.17;;;21.60;58.80;;;;;;4043077;29;20036;-51
2022/11/04 01:17:22;;;;;;;4.32;0.95;;;21.60;58.70;;;;;;4056399;29;20487;-52
2022/11/04 01:19:44;;;;;;;4.30;1.00;;;21.70;59.60;;;;;;4053137;29;20036;-52
2022/11/04 01:22:07;;;;;;;3.42;1.00;;;21.70;58.70;;;;;;4053372;29;20122;-53
2022/11/04 01:24:30;;;;;;;5.40;0.95;;;21.70;58.50;;;;;;4052981;29;20119;-54
2022/11/04 01:26:52;;;;;;;2.20;0.70;;;21.70;58.70;;;;;;4045786;29;20060;-53
2022/11/04 01:29:15;;;;;;;3.17;0.75;;;21.70;58.50;;;;;;4054063;29;20587;-53
2022/11/04 01:31:37;;;;;;;2.10;0.75;;;21.80;58.50;;;;;;4053841;29;20534;-52
2022/11/04 01:34:00;;;;;;;4.13;0.80;;;21.80;58.40;;;;;;4053258;29;20040;-50
2022/11/04 01:36:23;;;;;;;2.03;0.70;;;21.80;58.30;;;;;;4055045;29;20067;-53
2022/11/04 01:38:46;;;;;;;2.30;0.60;;;21.80;58.30;;;;;;4051689;29;20600;-53
2022/11/04 01:41:15;;;;;;;2.92;0.70;;;21.80;58.20;;;;;;4053711;29;20763;-53
2022/11/04 01:43:50;;;;;;;3.13;1.00;;;21.80;58.10;;;;;;4054314;29;20036;-54
2022/11/04 01:46:32;;;;;;;3.90;1.00;;;21.90;58.00;;;;;;4053107;29;20067;-53
2022/11/04 01:49:16;;;;;;;3.47;0.60;;;21.90;57.90;;;;;;4065075;29;20042;-54
2022/11/04 01:51:41;;;;;;;2.45;0.47;;;21.90;57.80;;;;;;4049435;29;20229;-50
2022/11/04 01:54:06;;;;;;;2.88;0.90;;;21.90;57.80;;;;;;4042847;29;20047;-54
2022/11/04 01:56:29;;;;;;;3.67;0.80;;;22.00;57.60;;;;;;4062010;29;20047;-54
2022/11/04 01:58:54;;;;;;;9.52;0.93;;;22.00;57.40;;;;;;4059659;29;20048;-54
2022/11/04 02:01:18;;;;;;;2.22;0.90;;;22.00;56.60;;;;;;4055332;29;20048;-54
2022/11/04 02:03:51;;;;;;;2.10;0.95;;;22.00;56.60;;;;;;4051769;29;20052;-53
2022/11/04 02:06:15;;;;;;;4.07;1.08;;;22.00;56.70;;;;;;4060573;29;20928;-52
2022/11/04 02:08:38;;;;;;;4.88;1.13;;;22.00;55.90;;;;;;4059868;29;20055;-49
2022/11/04 02:11:03;;;;;;;2.30;1.02;;;22.00;55.50;;;;;;4059002;29;20044;-51
2022/11/04 02:13:27;;;;;;;2.92;1.10;;;22.00;55.60;;;;;;4055407;29;20182;-49
2022/11/04 02:16:30;;;;;;;1.95;0.85;;;21.90;55.40;;;;;;4058656;29;20150;-54
2022/11/04 02:19:23;;;;;;;2.75;0.85;;;21.90;55.40;;;;;;4060453;29;20067;-52
2022/11/04 02:22:03;;;;;;;1.83;0.80;;;21.90;55.40;;;;;;4056846;29;20040;-52
2022/11/04 02:24:53;;;;;;;1.60;0.80;;;21.80;55.30;;;;;;4055750;29;20044;-51
2022/11/04 02:27:33;;;;;;;3.35;1.10;;;21.80;55.50;;;;;;4059846;29;20052;-51
2022/11/04 02:29:55;;;;;;;2.53;1.38;;;21.80;55.50;;;;;;4058473;29;20072;-48
2022/11/04 02:32:48;;;;;;;2.40;0.82;;;21.70;55.40;;;;;;4057105;29;20047;-52
2022/11/04 02:35:30;;;;;;;1.92;1.20;;;21.70;55.50;;;;;;4055266;29;20169;-53
2022/11/04 02:38:14;;;;;;;1.75;0.90;;;21.70;55.50;;;;;;4054847;29;20566;-47
2022/11/04 02:41:06;;;;;;;3.55;0.85;;;21.70;55.50;;;;;;4059038;29;20488;-50
2022/11/04 02:43:38;;;;;;;4.78;1.08;;;21.70;55.60;;;;;;4055619;29;20044;-47
2022/11/04 02:46:19;;;;;;;2.33;1.00;;;21.70;55.50;;;;;;4054638;29;20048;-48
2022/11/04 02:48:49;;;;;;;1.38;0.80;;;21.70;55.90;;;;;;4056175;29;20044;-52
2022/11/04 02:52:06;;;;;;;1.77;0.82;;;21.70;56.30;;;;;;4059862;29;20729;-53
2022/11/04 02:54:48;;;;;;;3.33;1.23;;;21.70;56.40;;;;;;4025886;29;20489;-53
2022/11/04 02:57:16;;;;;;;1.77;0.70;;;21.80;56.50;;;;;;4059487;29;20048;-52
2022/11/04 02:59:56;;;;;;;2.63;0.80;;;21.90;56.50;;;;;;4057361;29;20161;-47
2022/11/04 03:02:26;;;;;;;1.63;0.77;;;22.00;56.50;;;;;;4052006;29;20123;-51
2022/11/04 03:04:51;;;;;;;0.85;0.60;;;22.00;56.40;;;;;;4059230;29;20071;-49
2022/11/04 03:07:18;;;;;;;1.02;0.75;;;22.10;56.50;;;;;;4052811;29;21505;-48
2022/11/04 03:09:44;;;;;;;1.35;0.80;;;22.10;56.50;;;;;;4057461;29;20040;-51
2022/11/04 03:12:15;;;;;;;7.22;0.68;;;22.20;56.50;;;;;;4053325;29;20048;-50
2022/11/04 03:14:46;;;;;;;1.10;0.57;;;22.20;56.60;;;;;;4054899;29;20048;-54
2022/11/04 03:17:18;;;;;;;1.17;0.50;;;22.20;56.50;;;;;;4051781;29;20552;-48
2022/11/04 03:19:44;;;;;;;2.30;0.63;;;22.30;56.40;;;;;;4054256;29;20484;-51
2022/11/04 03:22:12;;;;;;;1.77;0.60;;;22.30;56.30;;;;;;4050716;29;20048;-47
2022/11/04 03:24:34;;;;;;;0.98;0.60;;;22.40;56.30;;;;;;4053461;29;20128;-47
2022/11/04 03:27:24;;;;;;;1.02;0.43;;;22.50;56.20;;;;;;4056157;29;20052;-52
2022/11/04 03:30:12;;;;;;;0.60;0.38;;;22.50;56.10;;;;;;4067261;29;20051;-51
2022/11/04 03:32:41;;;;;;;0.85;0.45;;;22.50;56.10;;;;;;4056191;29;20044;-50
2022/11/04 03:35:04;;;;;;;1.85;0.40;;;22.60;56.20;;;;;;4056544;29;20044;-52
2022/11/04 03:37:27;;;;;;;1.10;0.43;;;22.60;56.10;;;;;;4059277;29;20873;-50
2022/11/04 03:39:49;;;;;;;0.40;0.40;;;22.70;56.00;;;;;;4057325;29;20035;-49
2022/11/04 03:42:20;;;;;;;0.52;0.30;;;22.70;55.80;;;;;;4059972;29;20355;-49
2022/11/04 03:44:42;;;;;;;1.25;0.50;;;22.80;55.90;;;;;;4057345;29;20753;-50
2022/11/04 03:47:05;;;;;;;0.40;0.30;;;22.80;55.80;;;;;;4055007;29;20196;-49
2022/11/04 03:49:28;;;;;;;2.60;0.50;;;22.90;55.70;;;;;;4058795;29;20044;-50
2022/11/04 03:51:51;;;;;;;0.47;0.35;;;22.90;55.70;;;;;;4057821;29;20044;-48
2022/11/04 03:54:15;;;;;;;0.85;0.30;;;22.90;55.70;;;;;;4059309;29;20091;-51
2022/11/04 03:56:46;;;;;;;0.50;0.40;;;22.90;55.70;;;;;;4057665;29;20040;-49
2022/11/04 03:59:35;;;;;;;1.00;0.40;;;23.00;55.80;;;;;;4052573;29;20107;-50
2022/11/04 04:02:13;;;;;;;3.65;0.52;;;23.00;55.80;;;;;;4056665;29;20488;-48
2022/11/04 04:05:08;;;;;;;0.63;0.40;;;23.00;55.90;;;;;;4058643;29;20163;-49
2022/11/04 04:07:38;;;;;;;0.38;0.30;;;23.00;55.80;;;;;;4055835;29;20044;-48
2022/11/04 04:10:37;;;;;;;0.80;0.40;;;23.10;55.80;;;;;;4047842;29;20088;-49
2022/11/04 04:12:58;;;;;;;0.55;0.55;;;23.10;55.80;;;;;;4055839;29;20104;-49
2022/11/04 04:15:28;;;;;;;0.65;0.55;;;23.10;55.80;;;;;;4051870;29;20044;-45
2022/11/04 04:17:57;;;;;;;0.38;0.30;;;23.10;55.90;;;;;;4057636;29;20112;-50
2022/11/04 04:20:25;;;;;;;1.27;0.47;;;23.20;56.00;;;;;;4052932;29;20036;-50
2022/11/04 04:22:57;;;;;;;0.32;0.30;;;23.20;56.00;;;;;;4050908;29;20535;-47
2022/11/04 04:28:05;;;;;;;0.77;0.50;;;23.30;55.80;;;;;;4056333;29;20436;-52
2022/11/04 04:30:28;;;;;;;0.50;0.40;;;23.30;55.70;;;;;;4054659;29;20043;-48
2022/11/04 04:33:05;;;;;;;1.55;0.70;;;23.40;55.80;;;;;;4054210;29;20047;-52
2022/11/04 04:35:42;;;;;;;0.63;0.47;;;23.30;55.80;;;;;;4055602;29;20172;-51
2022/11/04 04:46:40;;;;;;;0.90;0.43;;;23.40;55.90;;;;;;4026323;29;20464;-50
2022/11/04 04:49:07;;;;;;;1.70;0.60;;;23.40;55.80;;;;;;4056090;29;20052;-54
2022/11/04 04:51:30;;;;;;;0.75;0.50;;;23.40;55.80;;;;;;4057324;29;20063;-52
2022/11/04 04:53:52;;;;;;;1.35;0.80;;;23.50;56.00;;;;;;4050301;29;20048;-52
2022/11/04 04:56:15;;;;;;;1.88;0.73;;;23.50;56.00;;;;;;4055268;29;20393;-53
2022/11/04 04:58:37;;;;;;;1.35;0.60;;;23.50;55.80;;;;;;4055627;29;20047;-50
2022/11/04 05:01:00;;;;;;;1.83;0.68;;;23.50;56.00;;;;;;4054339;29;21068;-53
2022/11/04 05:03:24;;;;;;;1.73;0.90;;;23.50;55.80;;;;;;4058022;29;20107;-51
2022/11/04 05:05:47;;;;;;;1.08;0.50;;;23.60;55.90;;;;;;4054743;29;20522;-52
2022/11/04 05:08:09;;;;;;;2.40;0.70;;;23.60;55.80;;;;;;4054411;29;20151;-50
2022/11/04 05:10:32;;;;;;;1.45;0.60;;;23.60;55.80;;;;;;4055570;29;20245;-49
2022/11/04 05:15:35;;;;;;;1.70;0.70;;;23.60;55.80;;;;;;4054505;29;20043;-50
2022/11/04 05:18:00;;;;;;;1.40;0.75;;;23.70;55.70;;;;;;4053415;29;20048;-52
2022/11/04 05:20:23;;;;;;;1.67;0.70;;;23.80;55.50;;;;;;4051446;29;20055;-51
2022/11/04 05:22:46;;;;;;;2.78;0.80;;;23.80;55.40;;;;;;4056258;29;20055;-53
2022/11/04 05:25:08;;;;;;;2.33;0.90;;;23.90;55.40;;;;;;4053406;29;20040;-52
2022/11/04 05:27:31;;;;;;;0.57;0.50;;;24.00;55.30;;;;;;4055535;29;20051;-50
2022/11/04 05:29:53;;;;;;;2.15;0.90;;;24.10;55.10;;;;;;4048574;29;20040;-47
2022/11/04 05:32:16;;;;;;;1.25;0.93;;;24.10;55.10;;;;;;4054754;29;20047;-51
2022/11/04 05:34:38;;;;;;;1.42;0.85;;;24.10;55.10;;;;;;4055756;29;20032;-51
2022/11/04 05:37:01;;;;;;;0.98;0.60;;;24.20;55.10;;;;;;4054427;29;20033;-54
2022/11/04 05:39:23;;;;;;;1.83;0.52;;;24.30;54.70;;;;;;4052653;29;20180;-47
2022/11/04 05:41:46;;;;;;;1.45;0.70;;;24.40;54.60;;;;;;4053255;29;20040;-50
2022/11/04 05:44:09;;;;;;;1.67;0.82;;;24.40;54.50;;;;;;4051581;29;20044;-48
2022/11/04 05:46:32;;;;;;;2.13;0.80;;;24.40;54.60;;;;;;4049388;29;20055;-47
2022/11/04 05:48:55;;;;;;;1.92;0.65;;;24.40;54.50;;;;;;4053066;29;20047;-53
2022/11/04 05:51:21;;;;;;;2.33;0.95;;;24.40;54.70;;;;;;4049247;29;20705;-50
2022/11/04 05:53:44;;;;;;;7.75;1.08;;;24.40;54.40;;;;;;4051520;29;20119;-51
2022/11/04 05:56:07;;;;;;;1.95;0.55;;;24.50;54.40;;;;;;4049477;29;20467;-53
2022/11/04 05:58:30;;;;;;;2.20;0.82;;;24.50;54.40;;;;;;4046565;29;20072;-50
2022/11/04 06:00:52;;;;;;;5.40;1.08;;;24.60;54.90;;;;;;4050833;29;20075;-54
2022/11/04 06:03:15;;;;;;;3.55;0.80;;;24.60;54.60;;;;;;4051872;29;20044;-51
2022/11/04 06:05:37;;;;;;;1.67;0.63;;;24.60;54.20;;;;;;4051831;29;20116;-47
2022/11/04 06:08:00;;;;;;;1.92;0.57;;;24.60;54.30;;;;;;4053578;29;20381;-49
2022/11/04 06:10:23;;;;;;;2.63;0.73;;;24.60;54.30;;;;;;4054370;29;20048;-48
2022/11/04 06:12:45;;;;;;;;;;;24.60;54.10;;;;;;4055603;29;20083;-48
2022/11/04 06:15:08;;;;;;;1.98;0.77;;;24.60;54.10;;;;;;4056208;29;19937;-48
2022/11/04 06:17:31;;;;;;;2.30;0.80;;;24.70;54.10;;;;;;4054220;29;20052;-46
2022/11/04 06:19:53;;;;;;;0.73;0.70;;;24.60;54.00;;;;;;4057672;29;20115;-52
2022/11/04 06:22:18;;;;;;;1.95;0.63;;;24.60;54.60;;;;;;4056889;29;20044;-52
2022/11/04 06:24:41;;;;;;;1.38;0.60;;;24.70;53.90;;;;;;4054421;29;20220;-44
2022/11/04 06:27:04;;;;;;;1.65;0.40;;;24.70;53.90;;;;;;4053742;29;20075;-52
2022/11/04 06:29:26;;;;;;;2.00;0.70;;;24.70;53.90;;;;;;4053839;29;20059;-51
2022/11/04 06:31:49;;;;;;;0.82;0.57;;;24.70;53.80;;;;;;4052467;29;20568;-50
2022/11/04 06:34:11;;;;;;;1.15;0.60;;;24.70;53.90;;;;;;4052678;29;20522;-51
2022/11/04 06:36:34;;;;;;;1.80;0.57;;;24.70;53.90;;;;;;4053137;29;20072;-53
2022/11/04 06:38:57;;;;;;;1.20;0.65;;;24.70;53.90;;;;;;4056410;29;20043;-49
2022/11/04 06:41:20;;;;;;;1.00;0.35;;;24.70;53.90;;;;;;4054051;29;20444;-51
2022/11/04 06:43:43;;;;;;;0.60;0.38;;;24.70;54.00;;;;;;4058438;29;20044;-51
2022/11/04 06:46:05;;;;;;;0.88;0.57;;;24.60;54.00;;;;;;4057698;29;20060;-49
2022/11/04 06:48:30;;;;;;;1.45;0.55;;;24.70;54.10;;;;;;4055921;29;20507;-48
2022/11/04 06:50:52;;;;;;;1.88;0.80;;;24.60;54.10;;;;;;4054190;29;20050;-53
2022/11/04 06:53:15;;;;;;;2.28;0.60;;;24.60;54.10;;;;;;4056272;29;20519;-52
2022/11/04 06:55:37;;;;;;;1.85;0.60;;;24.60;54.20;;;;;;4056048;29;20055;-50
2022/11/04 06:58:00;;;;;;;2.05;0.52;;;24.60;54.30;;;;;;4057519;29;20473;-50
2022/11/04 07:00:23;;;;;;;1.25;0.63;;;24.60;54.30;;;;;;4057698;29;20163;-53
2022/11/04 07:02:45;;;;;;;3.53;0.60;;;24.60;54.40;;;;;;4054203;29;20035;-50
2022/11/04 07:05:08;;;;;;;1.83;0.70;;;24.60;54.30;;;;;;4048189;29;20048;-47
2022/11/04 07:07:31;;;;;;;2.33;0.55;;;24.60;54.30;;;;;;4051560;29;20048;-48
2022/11/04 07:09:53;;;;;;;1.65;0.70;;;24.50;54.30;;;;;;4050668;29;20047;-46
2022/11/04 07:12:16;;;;;;;1.25;0.50;;;24.50;54.30;;;;;;4046326;29;20352;-52
2022/11/04 07:14:38;;;;;;;3.20;0.82;;;24.60;54.30;;;;;;4050293;29;20398;-49
2022/11/04 07:17:01;;;;;;;2.70;0.82;;;24.50;54.30;;;;;;4050060;29;20125;-50
2022/11/04 07:19:23;;;;;;;1.77;0.63;;;24.60;54.30;;;;;;4050246;29;20032;-50
2022/11/04 07:21:46;;;;;;;0.90;0.60;;;24.60;54.30;;;;;;4049625;29;20143;-49
2022/11/04 07:24:08;;;;;;;0.80;0.60;;;24.50;54.20;;;;;;4052984;29;20069;-46
2022/11/04 07:26:31;;;;;;;1.02;0.60;;;24.50;54.30;;;;;;4052775;29;20059;-49
2022/11/04 07:28:53;;;;;;;2.42;0.80;;;24.50;54.20;;;;;;4051415;29;20079;-47
2022/11/04 07:31:16;;;;;;;6.13;0.65;;;24.50;54.30;;;;;;4052894;29;20507;-49
2022/11/04 07:33:39;;;;;;;2.13;0.63;;;24.40;54.30;;;;;;4049851;29;20136;-50
2022/11/04 07:36:08;;;;;;;3.03;1.05;;;24.50;54.40;;;;;;4054189;29;20256;-52
2022/11/04 07:38:31;;;;;;;3.20;0.90;;;24.40;53.40;;;;;;4053919;29;20131;-51
2022/11/04 07:40:53;;;;;;;5.75;1.45;;;24.40;52.70;;;;;;4050086;29;20382;-48
2022/11/04 07:43:16;;;;;;;1.50;0.90;;;24.40;52.20;;;;;;4053719;29;20488;-49
2022/11/04 07:45:38;;;;;;;2.70;1.08;;;24.30;51.80;;;;;;4051961;29;20055;-46
2022/11/04 07:48:01;;;;;;;2.28;1.02;;;24.20;51.70;;;;;;4049355;29;20087;-51
2022/11/04 07:50:23;;;;;;;1.67;0.90;;;24.20;51.70;;;;;;4050503;29;20094;-48
2022/11/04 07:52:46;;;;;;;2.97;0.98;;;24.10;51.80;;;;;;4052766;29;20048;-45
2022/11/04 07:55:09;;;;;;;2.53;1.05;;;24.00;51.80;;;;;;4049709;29;20040;-51
2022/11/04 07:57:31;;;;;;;4.95;1.13;;;24.00;52.50;;;;;;4051222;29;20045;-49
2022/11/04 07:59:54;;;;;;;3.47;1.27;;;24.00;51.90;;;;;;4053224;29;20041;-52
2022/11/04 08:02:17;;;;;;;2.90;1.15;;;23.90;52.00;;;;;;4051728;29;20048;-54
2022/11/04 08:04:40;;;;;;;1.67;0.90;;;23.90;52.00;;;;;;4051193;29;20055;-50
2022/11/04 08:07:06;;;;;;;2.08;1.17;;;23.80;52.10;;;;;;4052954;29;20389;-51
2022/11/04 08:09:28;;;;;;;3.15;1.17;;;23.80;52.10;;;;;;4052200;29;20099;-51
2022/11/04 08:11:50;;;;;;;2.72;1.10;;;23.70;52.20;;;;;;4052099;29;20075;-48
2022/11/04 08:14:13;;;;;;;2.85;1.17;;;23.70;52.30;;;;;;4051752;29;20701;-52
2022/11/04 08:16:35;;;;;;;2.58;1.00;;;23.60;52.30;;;;;;4048082;29;20044;-52
2022/11/04 08:19:01;;;;;;;2.47;0.90;;;23.60;52.30;;;;;;4049045;29;20084;-50
2022/11/04 08:21:23;;;;;;;2.85;1.05;;;23.60;52.50;;;;;;4054355;29;20436;-51
2022/11/04 08:23:47;;;;;;;2.72;1.20;;;23.60;52.50;;;;;;4045327;29;20039;-50
2022/11/04 08:26:12;;;;;;;2.47;1.17;;;23.50;53.20;;;;;;4047065;29;20049;-52
2022/11/04 08:28:35;;;;;;;1.60;1.00;;;23.50;52.60;;;;;;4045782;29;20096;-52
2022/11/04 08:31:03;;;;;;;2.33;1.23;;;23.50;52.70;;;;;;4047486;29;20051;-53
2022/11/04 08:33:27;;;;;;;4.45;1.27;;;23.40;52.70;;;;;;4046436;29;20075;-48
2022/11/04 08:35:50;;;;;;;2.65;1.42;;;23.40;52.90;;;;;;4046085;29;20633;-48
2022/11/04 08:38:12;;;;;;;2.15;1.10;;;23.40;53.10;;;;;;4048360;29;20051;-51
2022/11/04 08:40:36;;;;;;;1.75;0.90;;;23.40;53.30;;;;;;4051847;29;20040;-53
2022/11/04 08:42:58;;;;;;;;;;;23.40;53.40;;;;;;4050924;29;20079;-50
2022/11/04 08:45:21;;;;;;;3.20;1.00;;;23.30;53.50;;;;;;4048523;29;19914;-50
2022/11/04 08:47:44;;;;;;;3.38;1.00;;;23.30;53.50;;;;;;4049434;29;20585;-50
2022/11/04 08:50:07;;;;;;;1.58;0.88;;;23.30;53.60;;;;;;4047526;29;20056;-53
2022/11/04 08:52:29;;;;;;;4.10;1.20;;;23.30;53.60;;;;;;4048335;29;20064;-50
2022/11/04 08:54:54;;;;;;;2.33;1.25;;;23.20;53.60;;;;;;4047642;29;20099;-49
2022/11/04 08:57:16;;;;;;;2.08;1.10;;;23.20;53.70;;;;;;4049899;29;20428;-51
2022/11/04 08:59:39;;;;;;;2.40;1.00;;;23.20;54.40;;;;;;4049213;29;20063;-47
2022/11/04 09:02:01;;;;;;;2.60;1.30;;;23.10;53.80;;;;;;4051813;29;20532;-49
2022/11/04 09:04:24;;;;;;;2.10;1.20;;;23.10;54.70;;;;;;4047639;29;20043;-48
2022/11/04 09:06:49;;;;;;;2.80;1.50;;;23.10;54.00;;;;;;4052591;29;20504;-46
2022/11/04 09:09:15;;;;;;;2.72;1.40;;;23.10;54.10;;;;;;4050679;29;20500;-51
2022/11/04 09:11:41;;;;;;;4.47;1.75;;;23.10;54.10;;;;;;4053666;29;20144;-48
2022/11/04 09:14:04;;;;;;;4.57;2.08;;;23.00;54.20;;;;;;4052280;29;20051;-48
2022/11/04 09:16:29;;;;;;;16.05;8.38;;;23.00;54.30;;;;;;4050911;29;20032;-51
2022/11/04 09:18:51;;;;;;;22.85;14.30;;;23.00;54.30;;;;;;4047705;29;20812;-49
2022/11/04 09:21:14;;;;;;;19.90;14.23;;;23.00;54.40;;;;;;4046616;29;20067;-47
2022/11/04 09:23:37;;;;;;;11.45;9.52;;;23.00;54.40;;;;;;4045622;29;20765;-47
2022/11/04 09:26:09;;;;;;;14.57;8.70;;;23.00;54.50;;;;;;4043989;29;20575;-47
2022/11/04 09:28:32;;;;;;;12.32;8.40;;;23.00;54.50;;;;;;4047025;29;20148;-49
2022/11/04 09:30:54;;;;;;;10.25;7.75;;;22.90;54.50;;;;;;4045531;29;20075;-48
2022/11/04 09:33:17;;;;;;;10.77;7.57;;;22.90;54.50;;;;;;4046695;29;20429;-49
2022/11/04 09:35:40;;;;;;;11.65;8.40;;;22.90;54.50;;;;;;4048102;29;20036;-49
2022/11/04 09:38:02;;;;;;;14.27;8.75;;;22.90;54.50;;;;;;4051376;29;20052;-51
2022/11/04 09:40:25;;;;;;;12.30;7.57;;;22.90;54.60;;;;;;4050848;29;20481;-47
2022/11/04 09:43:11;;;;;;;13.17;8.33;;;22.80;54.40;;;;;;4050649;29;20158;-48
2022/11/04 09:45:34;;;;;;;13.77;7.75;;;22.80;54.50;;;;;;4045753;29;20511;-49
2022/11/04 09:48:06;;;;;;;16.15;7.90;;;22.80;54.50;;;;;;4047268;29;20052;-50
2022/11/04 09:50:35;;;;;;;11.93;6.75;;;22.80;54.70;;;;;;4044954;29;20112;-49
2022/11/04 09:53:16;;;;;;;11.60;6.72;;;22.80;54.90;;;;;;4044844;29;20505;-50
2022/11/04 09:55:47;;;;;;;10.77;5.88;;;22.80;55.00;;;;;;4045617;29;20040;-46
2022/11/04 09:58:13;;;;;;;9.18;5.70;;;22.80;55.20;;;;;;4048347;29;20082;-45
2022/11/04 10:00:38;;;;;;;16.65;5.43;;;22.80;55.30;;;;;;4045474;29;20048;-46
2022/11/04 10:03:47;;;;;;;8.85;4.47;;;22.80;55.40;;;;;;4046101;29;20048;-49
2022/11/04 10:06:43;;;;;;;10.18;4.40;;;22.90;55.50;;;;;;4047371;29;20055;-44
2022/11/04 10:09:36;;;;;;;10.55;4.13;;;22.90;55.60;;;;;;4045764;29;20617;-45
2022/11/04 10:12:47;;;;;;;8.38;4.65;;;22.90;55.70;;;;;;4045978;29;20522;-48
2022/11/04 10:15:46;;;;;;;6.10;3.40;;;22.90;55.70;;;;;;4044569;29;20049;-48
2022/11/04 10:18:39;;;;;;;6.93;3.28;;;22.90;55.70;;;;;;4049426;29;20048;-47
2022/11/04 10:21:21;;;;;;;5.95;3.40;;;22.90;55.70;;;;;;4050571;29;20242;-49
2022/11/04 10:23:57;;;;;;;10.10;3.05;;;22.90;55.70;;;;;;4049461;29;21084;-47
2022/11/04 10:26:36;;;;;;;4.97;2.75;;;22.90;55.70;;;;;;4051466;29;20060;-50
2022/11/04 10:29:05;;;;;;;8.80;2.92;;;22.90;55.70;;;;;;4050663;29;20079;-47
2022/11/04 10:31:27;;;;;;;4.35;2.80;;;22.90;55.80;;;;;;4050888;29;20399;-50
2022/11/04 10:34:07;;;;;;;5.07;2.30;;;22.90;55.80;;;;;;4050150;29;20532;-49
2022/11/04 10:36:31;;;;;;;11.60;2.83;;;22.90;55.80;;;;;;4045838;29;20484;-52
2022/11/04 10:38:55;;;;;;;5.43;2.40;;;22.90;55.80;;;;;;4046288;29;20040;-48
2022/11/04 10:41:25;;;;;;;6.10;2.20;;;22.90;55.90;;;;;;4048222;29;20487;-47
2022/11/04 10:43:48;;;;;;;3.83;2.25;;;22.90;56.00;;;;;;4046338;29;20040;-49
2022/11/04 10:46:36;;;;;;;5.18;2.40;;;22.90;56.10;;;;;;4047668;29;20091;-50
2022/11/04 10:49:12;;;;;;;5.90;2.17;;;22.90;56.00;;;;;;4049929;29;20043;-48
2022/11/04 10:51:35;;;;;;;3.97;1.88;;;23.00;56.00;;;;;;4049612;29;20407;-50
2022/11/04 10:54:00;;;;;;;5.10;1.98;;;22.90;56.00;;;;;;4049610;29;20395;-50
2022/11/04 10:56:28;;;;;;;6.18;1.90;;;23.00;56.00;;;;;;4046151;29;20051;-48
2022/11/04 10:58:52;;;;;;;4.60;1.90;;;23.00;56.10;;;;;;4048463;29;20043;-50
2022/11/04 11:01:32;;;;;;;3.45;1.67;;;23.00;56.00;;;;;;4047963;29;20091;-50
2022/11/04 11:03:55;;;;;;;2.72;1.70;;;22.90;55.90;;;;;;4046046;29;20655;-50
2022/11/04 11:06:31;;;;;;;2.93;2.00;;;23.00;55.90;;;;;;4050562;29;20063;-46
2022/11/04 11:09:12;;;;;;;4.20;1.45;;;22.90;55.80;;;;;;4052148;29;20079;-47
2022/11/04 11:11:44;;;;;;;4.85;1.65;;;22.90;55.90;;;;;;4054247;29;20199;-47
2022/11/04 11:14:31;;;;;;;3.03;1.40;;;22.90;55.90;;;;;;4052152;29;20044;-47
2022/11/04 11:16:54;;;;;;;7.80;1.65;;;23.00;56.10;;;;;;4053067;29;21032;-47
2022/11/04 11:19:20;;;;;;;4.03;1.30;;;22.90;56.10;;;;;;4055153;29;20179;-52
2022/11/04 11:21:51;;;;;;;6.03;1.90;;;22.90;56.00;;;;;;4050053;29;20139;-45
2022/11/04 11:24:20;;;;;;;3.22;1.50;;;22.90;55.90;;;;;;4048976;29;20049;-45
2022/11/04 11:26:47;;;;;;;3.33;1.27;;;22.90;56.00;;;;;;4053781;29;20063;-46
2022/11/04 11:29:11;;;;;;;5.88;1.30;;;22.90;56.00;;;;;;4055019;29;20051;-49
2022/11/04 11:31:39;;;;;;;3.47;1.20;;;22.90;56.00;;;;;;4047022;29;20099;-46
2022/11/04 11:34:25;;;;;;;4.53;1.10;;;22.90;56.00;;;;;;4051739;29;20046;-48
2022/11/04 11:36:49;;;;;;;5.00;1.20;;;22.90;56.10;;;;;;4052929;29;20048;-43
2022/11/04 11:39:12;;;;;;;5.80;1.45;;;22.90;56.00;;;;;;4049651;29;20899;-45
2022/11/04 11:41:54;;;;;;;9.80;1.10;;;22.90;56.10;;;;;;4050436;29;20107;-49
2022/11/04 11:44:31;;;;;;;7.93;1.70;;;22.90;56.00;;;;;;4055559;29;20036;-51
2022/11/04 11:46:56;;;;;;;5.60;1.10;;;22.90;56.10;;;;;;4051751;29;20086;-50
2022/11/04 11:49:27;;;;;;;3.25;1.25;;;22.90;56.00;;;;;;4046819;29;20697;-49
2022/11/04 11:51:50;;;;;;;5.65;1.52;;;22.90;55.90;;;;;;4053472;29;20041;-50
2022/11/04 11:54:36;;;;;;;2.72;1.02;;;22.80;55.80;;;;;;4048352;29;20040;-49
2022/11/04 11:57:10;;;;;;;4.72;1.38;;;22.80;55.70;;;;;;4047184;29;20485;-51
2022/11/04 11:59:47;;;;;;;2.15;1.05;;;22.80;55.70;;;;;;4044594;29;20044;-50
2022/11/04 12:02:18;;;;;;;3.70;1.52;;;22.80;55.70;;;;;;4045261;29;20457;-48
2022/11/04 12:04:41;;;;;;;2.70;1.17;;;22.80;55.80;;;;;;4047245;29;20471;-51
2022/11/04 12:07:12;;;;;;;3.83;1.40;;;22.80;55.90;;;;;;4045140;29;20064;-49
2022/11/04 12:09:55;;;;;;;2.35;1.20;;;22.80;55.90;;;;;;4058007;29;20778;-46
2022/11/04 12:12:32;;;;;;;3.25;1.08;;;22.80;55.90;;;;;;4053233;29;20067;-45
2022/11/04 12:15:07;;;;;;;1.73;0.98;;;22.70;55.90;;;;;;4047249;29;20036;-46
2022/11/04 12:17:43;;;;;;;;;;;22.70;55.90;;;;;;4051615;29;20036;-47
2022/11/04 12:20:14;;;;;;;2.38;1.40;;;22.70;55.90;;;;;;4051692;29;19911;-47
2022/11/04 12:22:58;;;;;;;1.95;1.00;;;22.70;55.90;;;;;;4047114;29;20041;-50
2022/11/04 12:25:30;;;;;;;4.43;1.30;;;22.70;56.00;;;;;;4051215;29;20052;-45
2022/11/04 12:28:03;;;;;;;4.55;1.88;;;22.70;56.00;;;;;;4056216;29;20315;-46
2022/11/04 12:30:26;;;;;;;4.53;1.92;;;22.70;54.80;;;;;;4053503;29;20130;-47
2022/11/04 12:32:52;;;;;;;4.03;1.80;;;22.70;55.10;;;;;;4050558;29;20091;-45
2022/11/04 12:35:41;;;;;;;5.57;2.00;;;22.60;55.10;;;;;;4056340;29;20044;-44
2022/11/04 12:38:22;;;;;;;4.95;1.40;;;22.60;55.20;;;;;;4063399;29;20052;-45
2022/11/04 12:40:54;;;;;;;3.28;1.50;;;22.60;55.40;;;;;;4051405;29;20058;-46
2022/11/04 12:43:23;;;;;;;2.38;1.27;;;22.60;55.40;;;;;;4053088;29;20048;-47
2022/11/04 12:46:08;;;;;;;2.80;1.23;;;22.60;55.60;;;;;;4048653;29;20152;-46
2022/11/04 12:48:48;;;;;;;7.70;1.88;;;22.50;55.70;;;;;;4050614;29;20044;-50
2022/11/04 12:51:49;;;;;;;3.78;1.30;;;22.50;55.70;;;;;;4053919;29;20039;-46
2022/11/04 12:54:37;;;;;;;3.90;1.23;;;22.50;55.80;;;;;;4049313;29;20051;-45
2022/11/04 12:57:27;;;;;;;15.32;1.77;;;22.50;55.90;;;;;;4050142;29;20476;-45
2022/11/04 13:00:01;;;;;;;5.40;1.30;;;22.40;56.00;;;;;;4049164;29;20048;-47
2022/11/04 13:02:33;;;;;;;8.30;1.52;;;22.40;56.10;;;;;;4052459;29;20040;-45
2022/11/04 13:05:20;;;;;;;5.50;1.20;;;22.50;56.10;;;;;;4051627;29;20411;-51
2022/11/04 13:08:02;;;;;;;3.90;1.30;;;22.40;56.00;;;;;;4051291;29;20373;-46
2022/11/04 13:10:46;;;;;;;6.65;1.52;;;22.40;56.00;;;;;;4049680;29;20170;-46
2022/11/04 13:13:11;;;;;;;6.07;1.55;;;22.40;56.20;;;;;;4055041;29;20064;-45
2022/11/04 13:15:49;;;;;;;4.25;1.55;;;22.30;56.10;;;;;;4049547;29;20028;-49
2022/11/04 13:18:17;;;;;;;11.63;1.35;;;22.30;56.00;;;;;;4050792;29;20127;-47
2022/11/04 13:20:45;;;;;;;6.82;1.42;;;22.30;56.00;;;;;;4049151;29;20028;-46
2022/11/04 13:23:31;;;;;;;4.72;1.27;;;22.30;56.20;;;;;;4048776;29;20103;-45